Time;durP1;ratioP1;P1;durP2;ratioP2;P2;SDS_P1;SDS_P2;PMS_P1;PMS_P2;Temp;Humidity;BMP_temperature;BMP_pressure;BME280_temperature;BME280_humidity;BME280_pressure;Samples;Min_cycle;Max_cycle;Signal;HPM_P1;HPM_P2
2022/05/26 00:01:30;;;;;;;24.83;5.20;;;;;;;17.70;67.51;101752.16;5011208;28;20673;-64
2022/05/26 00:03:56;;;;;;;22.08;4.82;;;;;;;17.77;67.27;101753.91;5001959;28;20056;-62
2022/05/26 00:06:23;;;;;;;23.38;4.80;;;;;;;17.76;67.27;101754.78;5001455;28;20158;-62
2022/05/26 00:08:50;;;;;;;21.65;4.28;;;;;;;17.86;66.78;101753.91;5008362;28;20045;-63
2022/05/26 00:11:18;;;;;;;23.55;5.22;;;;;;;17.71;67.46;101757.44;5004245;28;20041;-63
2022/05/26 00:13:44;;;;;;;24.42;5.20;;;;;;;17.69;67.45;101753.91;5008962;28;20057;-64
2022/05/26 00:16:11;;;;;;;24.00;5.13;;;;;;;17.63;67.81;101753.03;4991058;28;20048;-63
2022/05/26 00:18:36;;;;;;;22.35;4.85;;;;;;;17.73;67.32;101753.06;5013365;28;20411;-63
2022/05/26 00:21:03;;;;;;;26.27;5.10;;;;;;;17.62;67.51;101757.47;5009080;28;20065;-64
2022/05/26 00:23:28;;;;;;;24.27;5.15;;;;;;;17.71;67.25;101759.19;5003680;28;20597;-64
2022/05/26 00:25:57;;;;;;;25.55;5.40;;;;;;;17.66;67.35;101759.22;5007127;28;20034;-64
2022/05/26 00:28:22;;;;;;;23.27;5.60;;;;;;;17.71;67.22;101759.19;5004693;28;20322;-62
2022/05/26 00:30:48;;;;;;;27.02;5.35;;;;;;;17.67;67.39;101760.09;5007620;28;20299;-62
2022/05/26 00:33:16;;;;;;;24.05;4.85;;;;;;;17.63;67.67;101753.94;5008835;28;20056;-63
2022/05/26 00:35:41;;;;;;;24.92;4.95;;;;;;;17.63;67.93;101761.84;5010816;28;20585;-62
2022/05/26 00:38:09;;;;;;;23.45;4.85;;;;;;;17.66;67.46;101756.56;4997465;28;20046;-62
2022/05/26 00:40:35;;;;;;;26.60;5.43;;;;;;;17.65;67.68;101753.94;5009664;28;20041;-67
2022/05/26 00:43:01;;;;;;;30.02;5.40;;;;;;;17.72;66.98;101758.31;5007453;28;20048;-63
2022/05/26 00:45:37;;;;;;;23.95;5.15;;;;;;;17.87;66.61;101767.97;5001810;28;20081;-64
2022/05/26 00:48:07;;;;;;;21.33;4.47;;;;;;;17.84;66.41;101771.47;5008177;28;20352;-63
2022/05/26 00:50:41;;;;;;;22.30;4.97;;;;;;;17.90;66.03;101773.22;5000409;28;20042;-64
2022/05/26 00:53:18;;;;;;;23.58;4.55;;;;;;;17.99;65.69;101773.22;5007106;28;20052;-63
2022/05/26 00:56:13;;;;;;;23.40;4.72;;;;;;;17.96;65.92;101776.72;5004044;28;21695;-63
2022/05/26 00:58:44;;;;;;;20.42;4.45;;;;;;;17.97;65.55;101778.50;5003183;28;20504;-64
2022/05/26 01:01:11;;;;;;;21.67;4.45;;;;;;;18.07;65.40;101776.69;5003450;28;20127;-62
2022/05/26 01:03:48;;;;;;;22.58;4.32;;;;;;;17.97;65.58;101782.88;5002457;28;20543;-64
2022/05/26 01:06:19;;;;;;;22.88;4.43;;;;;;;17.95;65.51;101777.59;4997558;28;20295;-62
2022/05/26 01:08:57;;;;;;;21.85;5.13;;;;;;;17.99;65.24;101786.41;5002637;28;20112;-63
2022/05/26 01:11:25;;;;;;;24.85;5.10;;;;;;;18.08;64.85;101791.66;5009206;28;20099;-63
2022/05/26 01:14:00;;;;;;;19.08;4.90;;;;;;;18.02;64.70;101791.66;5006213;28;20408;-64
2022/05/26 01:16:53;;;;;;;24.35;5.18;;;;;;;17.96;64.91;101789.03;5006249;28;20320;-62
2022/05/26 01:19:31;;;;;;;25.02;5.80;;;;;;;18.00;64.50;101790.78;5004136;28;20509;-63
2022/05/26 01:22:05;;;;;;;20.13;6.18;;;;;;;17.68;65.53;101794.38;5006874;28;20056;-63
2022/05/26 01:24:36;;;;;;;;;;;;;;;17.80;64.54;101788.22;5009744;28;20100;-63
2022/05/26 01:27:24;;;;;;;19.85;5.68;;;;;;;17.87;64.03;101800.47;5001047;28;19963;-63
2022/05/26 01:30:24;;;;;;;20.83;5.53;;;;;;;17.94;64.00;101803.97;5005487;28;20044;-62
2022/05/26 01:33:25;;;;;;;24.08;5.68;;;;;;;17.97;63.65;101798.72;5010431;28;20360;-62
2022/05/26 01:36:11;;;;;;;18.52;5.65;;;;;;;17.93;63.53;101797.81;5005243;28;20056;-63
2022/05/26 01:38:48;;;;;;;18.35;5.75;;;;;;;17.91;63.10;101807.53;5004293;28;20046;-63
2022/05/26 01:41:34;;;;;;;16.88;4.28;;;;;;;17.89;62.82;101806.63;5000031;28;20865;-63
2022/05/26 01:44:47;;;;;;;16.33;3.22;;;;;;;17.86;61.27;101805.78;5000648;28;20040;-62
2022/05/26 01:47:22;;;;;;;10.07;2.78;;;;;;;17.99;61.00;101810.16;5005450;28;20084;-63
2022/05/26 01:50:14;;;;;;;13.40;3.13;;;;;;;17.89;61.04;101798.72;5008161;28;20369;-63
2022/05/26 01:53:00;;;;;;;10.77;2.30;;;;;;;17.95;60.58;101811.03;5004495;28;20041;-63
2022/05/26 01:55:50;;;;;;;12.60;2.60;;;;;;;17.81;60.30;101803.13;5004085;28;20613;-63
2022/05/26 01:58:24;;;;;;;10.65;2.60;;;;;;;17.74;60.34;101814.59;4993502;28;20045;-63
2022/05/26 02:00:51;;;;;;;;;;;;;;;17.74;60.21;101817.22;5004295;28;20037;-63
2022/05/26 02:03:22;;;;;;;9.45;2.50;;;;;;;17.74;59.91;101814.59;5002919;28;19971;-63
2022/05/26 02:05:52;;;;;;;8.20;2.50;;;;;;;17.59;60.84;101814.56;4998557;28;20053;-64
2022/05/26 02:08:25;;;;;;;10.25;2.58;;;;;;;17.72;60.56;101833.03;4998205;28;20112;-64
2022/05/26 02:10:56;;;;;;;11.90;2.83;;;;;;;17.70;61.00;101823.38;5004520;28;20135;-63
2022/05/26 02:13:43;;;;;;;12.73;2.80;;;;;;;17.65;61.33;101831.28;5002139;28;20041;-63
2022/05/26 02:16:31;;;;;;;8.93;2.28;;;;;;;17.83;60.62;101823.34;4992644;28;20041;-63
2022/05/26 02:19:05;;;;;;;11.52;2.67;;;;;;;17.71;60.74;101825.13;5005233;28;20054;-64
2022/05/26 02:22:12;;;;;;;9.95;2.50;;;;;;;17.82;60.75;101826.00;5005261;28;20051;-63
2022/05/26 02:24:49;;;;;;;10.93;2.90;;;;;;;17.78;60.50;101834.78;4970421;28;20045;-61
2022/05/26 02:27:14;;;;;;;7.82;2.20;;;;;;;17.69;60.83;101835.66;5001496;28;20068;-63
2022/05/26 02:29:52;;;;;;;8.75;2.50;;;;;;;17.71;60.74;101839.19;5007504;28;20399;-63
2022/05/26 02:32:32;;;;;;;9.52;2.53;;;;;;;17.62;61.04;101843.59;4996564;28;20076;-62
2022/05/26 02:35:00;;;;;;;8.18;2.50;;;;;;;17.47;61.35;101852.34;5001941;28;20049;-64
2022/05/26 02:37:28;;;;;;;10.00;2.53;;;;;;;17.28;61.86;101853.19;5001389;28;20038;-64
2022/05/26 02:39:55;;;;;;;9.38;2.33;;;;;;;17.31;61.57;101851.47;4999473;28;20558;-62
2022/05/26 02:42:22;;;;;;;6.68;2.42;;;;;;;17.23;61.97;101860.22;4993706;28;20096;-64
2022/05/26 02:44:48;;;;;;;10.95;2.80;;;;;;;17.12;62.32;101867.25;5001740;28;20399;-63
2022/05/26 02:47:25;;;;;;;9.55;2.83;;;;;;;17.20;62.06;101863.72;5010515;28;20111;-62
2022/05/26 02:50:32;;;;;;;13.63;3.72;;;;;;;17.17;62.25;101860.22;5007639;28;20085;-62
2022/05/26 02:53:24;;;;;;;19.33;4.70;;;;;;;17.17;62.13;101866.38;4982125;28;20056;-62
2022/05/26 02:56:05;;;;;;;16.40;4.90;;;;;;;17.19;62.08;101871.66;4998219;28;20034;-62
2022/05/26 02:58:36;;;;;;;14.07;4.60;;;;;;;17.17;62.45;101873.38;5008602;28;20041;-63
2022/05/26 03:01:17;;;;;;;10.88;4.18;;;;;;;17.11;63.16;101874.25;4999247;28;20205;-62
2022/05/26 03:03:48;;;;;;;10.52;3.53;;;;;;;17.18;62.41;101872.53;5001884;28;20103;-64
2022/05/26 03:06:19;;;;;;;11.25;3.40;;;;;;;17.15;62.69;101875.13;4997184;28;20097;-62
2022/05/26 03:08:45;;;;;;;14.10;3.00;;;;;;;17.14;62.73;101876.03;4995866;28;20037;-63
2022/05/26 03:11:18;;;;;;;11.75;3.10;;;;;;;17.06;63.06;101880.41;5004737;28;20128;-63
2022/05/26 03:13:44;;;;;;;12.73;3.17;;;;;;;16.99;63.49;101880.38;5005633;28;20575;-63
2022/05/26 03:16:10;;;;;;;11.35;3.47;;;;;;;16.92;64.45;101885.63;4995026;28;20037;-63
2022/05/26 03:18:35;;;;;;;9.90;2.95;;;;;;;16.92;64.33;101885.63;5009048;28;20032;-63
2022/05/26 03:21:03;;;;;;;12.93;3.50;;;;;;;16.94;64.37;101882.13;5004344;28;20356;-62
2022/05/26 03:23:30;;;;;;;8.68;2.63;;;;;;;17.01;64.39;101883.91;5007330;28;20045;-62
2022/05/26 03:25:58;;;;;;;14.07;3.15;;;;;;;17.01;64.09;101888.28;4999216;28;20061;-62
2022/05/26 03:28:26;;;;;;;9.88;3.30;;;;;;;17.09;63.67;101890.94;5001998;28;20429;-63
2022/05/26 03:30:51;;;;;;;10.15;3.10;;;;;;;16.99;63.92;101888.28;5011021;28;20525;-63
2022/05/26 03:33:17;;;;;;;10.18;2.78;;;;;;;17.03;63.77;101892.69;5005375;28;20045;-64
2022/05/26 03:41:10;;;;;;;13.52;3.30;;;;;;;16.87;64.11;101885.59;5004639;28;20410;-63
2022/05/26 03:43:39;;;;;;;14.15;3.20;;;;;;;16.91;63.92;101889.13;5005227;28;20046;-61
2022/05/26 03:46:05;;;;;;;12.60;3.25;;;;;;;16.85;64.18;101892.63;4997487;28;20507;-63
2022/05/26 03:48:30;;;;;;;12.70;3.20;;;;;;;16.84;64.20;101905.75;5000736;28;20053;-63
2022/05/26 03:50:56;;;;;;;11.32;3.00;;;;;;;16.81;64.44;101893.47;5019300;28;20103;-62
2022/05/26 03:53:21;;;;;;;9.70;2.92;;;;;;;16.82;64.67;101905.78;5004718;28;20049;-62
2022/05/26 03:55:46;;;;;;;10.75;2.72;;;;;;;16.82;64.48;101911.06;5006704;28;20063;-63
2022/05/26 03:58:12;;;;;;;8.30;3.00;;;;;;;16.77;64.73;101904.84;4991980;28;20299;-63
2022/05/26 04:00:37;;;;;;;11.85;3.60;;;;;;;16.82;64.54;101918.97;5001839;28;20504;-63
2022/05/26 04:03:03;;;;;;;9.45;2.78;;;;;;;16.86;64.42;101912.81;5009816;28;20786;-63
2022/05/26 04:05:29;;;;;;;10.30;2.80;;;;;;;16.89;64.41;101914.59;5000397;28;20042;-63
2022/05/26 04:07:54;;;;;;;12.05;3.50;;;;;;;16.92;64.39;101918.09;5008968;28;20047;-64
2022/05/26 04:10:20;;;;;;;11.35;3.25;;;;;;;17.08;64.25;101921.66;4992556;28;22233;-62
2022/05/26 04:12:45;;;;;;;10.40;2.80;;;;;;;17.19;64.06;101925.25;5001698;28;20373;-63
2022/05/26 04:15:13;;;;;;;11.73;3.30;;;;;;;17.21;63.30;101927.84;5003095;28;20151;-63
2022/05/26 04:17:38;;;;;;;8.07;2.78;;;;;;;17.27;63.48;101925.22;5006453;28;20472;-63
2022/05/26 04:20:06;;;;;;;12.10;3.03;;;;;;;17.37;63.12;101933.19;5002531;28;20155;-62
2022/05/26 04:22:31;;;;;;;11.15;2.75;;;;;;;17.42;63.03;101938.47;5004918;28;20540;-63
2022/05/26 04:24:59;;;;;;;11.30;2.97;;;;;;;17.48;62.50;101946.38;5008101;28;20555;-63
2022/05/26 04:27:27;;;;;;;11.43;2.63;;;;;;;17.53;62.30;101951.66;5014378;28;20041;-63
2022/05/26 04:29:55;;;;;;;12.63;3.00;;;;;;;17.47;62.50;101949.91;5007015;28;20044;-62
2022/05/26 04:32:22;;;;;;;9.40;2.85;;;;;;;17.55;62.43;101956.06;4999962;28;20187;-63
2022/05/26 04:34:50;;;;;;;10.35;2.88;;;;;;;17.55;62.18;101949.91;5004260;28;20048;-63
2022/05/26 04:37:16;;;;;;;12.70;3.15;;;;;;;17.58;62.29;101953.44;5001158;28;20143;-63
2022/05/26 04:39:42;;;;;;;11.40;3.35;;;;;;;17.69;62.29;101958.75;5004870;28;20584;-62
2022/05/26 04:42:08;;;;;;;11.68;3.03;;;;;;;17.72;62.43;101956.13;5000626;28;20107;-62
2022/05/26 04:44:38;;;;;;;14.45;3.33;;;;;;;17.74;61.74;101957.91;5006801;28;20611;-63
2022/05/26 04:47:04;;;;;;;11.52;2.97;;;;;;;17.90;61.44;101956.13;5008479;28;20045;-64
2022/05/26 04:49:29;;;;;;;8.32;2.70;;;;;;;17.96;60.81;101957.91;5008667;28;20029;-63
2022/05/26 04:51:56;;;;;;;12.15;3.20;;;;;;;17.74;61.41;101960.53;5004418;28;20060;-62
2022/05/26 04:54:22;;;;;;;11.65;2.90;;;;;;;17.73;61.36;101965.81;4996063;28;20057;-62
2022/05/26 04:56:47;;;;;;;10.27;2.78;;;;;;;17.93;63.38;101969.31;5005115;28;20045;-63
2022/05/26 04:59:12;;;;;;;11.50;2.80;;;;;;;18.59;60.42;101968.44;5009752;28;20137;-63
2022/05/26 05:01:37;;;;;;;11.40;2.75;;;;;;;19.66;57.12;101973.28;5003930;28;20413;-63
2022/05/26 05:04:04;;;;;;;10.52;2.72;;;;;;;20.21;54.92;101971.97;4995847;28;20041;-63
2022/05/26 05:06:29;;;;;;;10.27;2.63;;;;;;;20.33;54.13;101972.78;5003378;28;20148;-62
2022/05/26 05:08:55;;;;;;;11.10;3.08;;;;;;;20.19;53.38;101973.72;5009066;28;20577;-65
2022/05/26 05:11:20;;;;;;;11.15;2.78;;;;;;;20.16;54.17;101978.19;5002376;28;20519;-63
2022/05/26 05:13:45;;;;;;;12.80;3.28;;;;;;;19.82;54.65;101985.53;5006449;28;20476;-63
2022/05/26 05:16:28;;;;;;;9.27;2.70;;;;;;;19.60;55.38;101987.41;4996544;28;20404;-63
2022/05/26 05:18:54;;;;;;;10.15;2.47;;;;;;;19.44;56.38;101998.97;5006453;28;20045;-63
2022/05/26 05:21:29;;;;;;;8.65;2.70;;;;;;;19.22;56.26;102003.44;5003923;28;20156;-61
2022/05/26 05:24:00;;;;;;;9.90;2.88;;;;;;;19.20;56.88;101992.03;5010735;28;20090;-63
2022/05/26 05:26:32;;;;;;;8.43;2.60;;;;;;;19.04;56.97;102001.75;5004176;28;20041;-62
2022/05/26 05:29:14;;;;;;;11.20;3.03;;;;;;;18.88;57.86;101992.13;5004771;28;20045;-63
2022/05/26 05:31:44;;;;;;;8.52;2.55;;;;;;;19.05;57.15;102000.88;5005030;28;20053;-63
2022/05/26 05:34:33;;;;;;;10.00;2.80;;;;;;;18.97;57.14;102000.00;4997057;28;20042;-62
2022/05/26 05:36:59;;;;;;;12.30;3.10;;;;;;;18.84;57.84;102006.25;4995617;28;20137;-62
2022/05/26 05:39:25;;;;;;;8.13;2.55;;;;;;;18.94;57.54;102015.91;5008374;28;20053;-63
2022/05/26 05:41:54;;;;;;;10.60;2.85;;;;;;;18.99;57.21;102007.94;5003057;28;20044;-63
2022/05/26 05:44:20;;;;;;;8.50;2.67;;;;;;;19.01;57.24;102014.13;4994438;28;21764;-62
2022/05/26 05:46:57;;;;;;;10.52;2.67;;;;;;;19.01;57.47;102008.84;5005636;28;20041;-62
2022/05/26 05:49:25;;;;;;;8.35;2.45;;;;;;;19.39;57.30;102014.81;5002164;28;20050;-61
2022/05/26 05:51:51;;;;;;;10.63;2.80;;;;;;;19.87;56.67;102017.25;5007527;28;20046;-63
2022/05/26 05:54:17;;;;;;;12.38;2.70;;;;;;;21.14;53.31;102024.03;4999048;28;20114;-63
2022/05/26 05:56:43;;;;;;;8.38;2.50;;;;;;;22.87;46.90;102020.53;4998625;28;20049;-63
2022/05/26 05:59:08;;;;;;;9.40;2.40;;;;;;;24.28;43.11;102014.72;5003759;28;20076;-62
2022/05/26 06:01:34;;;;;;;7.15;2.20;;;;;;;25.01;41.67;102023.44;4998839;28;20377;-63
2022/05/26 06:03:59;;;;;;;7.50;2.08;;;;;;;25.65;40.03;102021.59;5002703;28;20136;-62
2022/05/26 06:06:26;;;;;;;10.43;2.20;;;;;;;26.91;37.81;102020.91;5005065;28;20416;-63
2022/05/26 06:08:51;;;;;;;10.45;2.40;;;;;;;27.14;36.12;102024.56;4999453;28;20080;-63
2022/05/26 06:11:16;;;;;;;9.07;2.22;;;;;;;27.68;35.70;102029.63;4998653;28;20423;-63
2022/05/26 06:13:42;;;;;;;8.60;2.47;;;;;;;26.98;36.15;102025.13;5000568;28;20041;-63
2022/05/26 06:16:07;;;;;;;7.15;2.00;;;;;;;26.86;36.83;102036.22;4998007;28;20553;-63
2022/05/26 06:18:33;;;;;;;7.13;2.03;;;;;;;27.88;35.29;102036.84;5008648;28;20033;-62
2022/05/26 06:21:04;;;;;;;8.27;2.00;;;;;;;28.26;35.00;102041.56;5002337;28;20049;-62
2022/05/26 06:23:29;;;;;;;7.88;2.03;;;;;;;27.67;35.43;102042.16;5003370;28;20412;-63
2022/05/26 06:25:54;;;;;;;10.23;2.40;;;;;;;27.88;34.85;102044.88;5002319;28;20037;-63
2022/05/26 06:31:04;;;;;;;6.45;1.92;;;;;;;27.22;36.02;102051.91;5008773;28;20646;-63
2022/05/26 06:38:58;;;;;;;8.20;2.20;;;;;;;26.19;38.31;102062.59;5001675;28;20067;-63
2022/05/26 06:44:08;;;;;;;6.22;1.95;;;;;;;27.98;35.77;102060.56;4995973;28;20402;-64
2022/05/26 06:46:34;;;;;;;7.18;2.20;;;;;;;28.24;34.68;102060.38;5005449;28;20029;-62
2022/05/26 06:48:59;;;;;;;9.07;2.28;;;;;;;28.65;33.12;102065.84;5001794;28;20090;-63
2022/05/26 06:51:28;;;;;;;7.00;2.10;;;;;;;29.16;33.03;102065.34;5007635;28;20558;-63
2022/05/26 06:53:55;;;;;;;10.85;2.20;;;;;;;29.02;32.43;102063.31;5005217;28;20622;-63
2022/05/26 06:56:21;;;;;;;4.80;1.77;;;;;;;29.31;32.48;102066.47;5009776;28;20280;-63
2022/05/26 06:58:46;;;;;;;8.57;2.00;;;;;;;27.87;34.68;102067.28;5002716;28;20056;-63
2022/05/26 07:01:14;;;;;;;6.55;1.90;;;;;;;28.83;33.34;102066.88;5000944;28;20038;-62
2022/05/26 07:03:40;;;;;;;9.13;2.10;;;;;;;28.02;35.07;102070.22;4993461;28;20057;-62
2022/05/26 07:06:12;;;;;;;6.68;1.90;;;;;;;29.05;32.22;102073.03;4984838;28;20046;-62
2022/05/26 07:08:38;;;;;;;7.20;1.77;;;;;;;28.46;32.88;102080.97;5000420;28;21065;-63
2022/05/26 07:11:03;;;;;;;5.75;1.70;;;;;;;28.77;32.00;102080.56;5004759;28;20045;-62
2022/05/26 07:13:29;;;;;;;6.28;1.85;;;;;;;29.30;31.80;102088.91;5000649;28;20057;-63
2022/05/26 07:15:54;;;;;;;9.20;1.98;;;;;;;29.28;32.76;102086.28;4999214;28;20220;-62
2022/05/26 07:18:20;;;;;;;8.18;2.08;;;;;;;28.65;32.37;102085.50;4995631;28;22213;-63
2022/05/26 07:20:45;;;;;;;7.68;1.95;;;;;;;28.99;32.03;102092.09;4998150;28;20049;-64
2022/05/26 07:23:11;;;;;;;6.85;1.80;;;;;;;29.90;31.70;102084.31;4993985;28;20697;-61
2022/05/26 07:25:43;;;;;;;8.30;2.25;;;;;;;30.59;30.17;102077.31;5000662;28;20071;-62
2022/05/26 07:28:12;;;;;;;7.82;1.80;;;;;;;30.54;29.57;102079.38;4990311;28;20125;-63
2022/05/26 07:30:38;;;;;;;8.10;1.85;;;;;;;31.02;29.15;102082.22;5001989;28;20043;-63
2022/05/26 07:33:03;;;;;;;6.85;1.83;;;;;;;31.01;29.02;102083.16;5000031;28;20045;-63
2022/05/26 07:35:29;;;;;;;8.60;2.00;;;;;;;30.01;32.53;102085.56;4999120;28;20044;-62
2022/05/26 07:43:29;;;;;;;8.18;2.10;;;;;;;29.55;32.05;102105.69;5047751;23;21212;-63
2022/05/26 07:45:56;;;;;;;9.88;2.13;;;;;;;29.11;33.43;102096.91;5001209;28;20528;-62
2022/05/26 07:48:21;;;;;;;8.18;1.90;;;;;;;28.35;33.84;102102.00;5011320;28;20048;-63
2022/05/26 07:50:47;;;;;;;8.98;2.20;;;;;;;27.16;36.07;102106.56;5023761;28;20425;-63
2022/05/26 07:53:12;;;;;;;7.53;2.00;;;;;;;26.85;35.42;102109.41;5023579;28;20247;-63
2022/05/26 07:55:42;;;;;;;10.23;2.10;;;;;;;26.36;37.88;102095.94;5008909;28;20057;-64
2022/05/26 07:58:09;;;;;;;8.43;2.05;;;;;;;27.20;34.79;102107.34;5019550;28;20074;-63
2022/05/26 08:00:34;;;;;;;10.60;2.63;;;;;;;26.03;38.10;102106.78;5025297;28;20076;-63
2022/05/26 08:02:59;;;;;;;10.40;2.20;;;;;;;25.98;38.68;102113.19;5025967;28;20152;-63
2022/05/26 08:05:25;;;;;;;9.68;2.40;;;;;;;27.15;35.36;102112.81;5025657;28;20495;-63
2022/05/26 08:07:50;;;;;;;9.02;2.10;;;;;;;26.50;36.28;102113.28;5029067;28;20045;-63
2022/05/26 08:10:16;;;;;;;10.38;2.20;;;;;;;25.43;38.22;102120.16;5020270;28;20550;-63
2022/05/26 08:12:41;;;;;;;10.73;2.20;;;;;;;24.55;40.86;102126.00;5025810;28;20053;-63
2022/05/26 08:15:07;;;;;;;7.90;2.22;;;;;;;25.79;39.28;102119.09;5030960;28;20032;-64
2022/05/26 08:17:33;;;;;;;9.00;2.00;;;;;;;26.90;37.44;102112.81;5026970;28;20052;-63
2022/05/26 08:19:58;;;;;;;7.32;1.90;;;;;;;27.51;37.74;102113.31;5024103;28;20045;-61
2022/05/26 08:22:23;;;;;;;7.68;1.90;;;;;;;28.18;34.25;102113.41;5029093;28;20609;-64
2022/05/26 08:24:54;;;;;;;7.63;1.80;;;;;;;28.85;33.77;102110.63;5025433;28;20036;-64
2022/05/26 08:27:20;;;;;;;8.82;2.05;;;;;;;28.92;34.33;102123.69;5023611;28;20372;-63
2022/05/26 08:29:46;;;;;;;7.10;1.90;;;;;;;29.87;30.56;102125.69;5024632;28;20028;-63
2022/05/26 08:32:11;;;;;;;11.70;2.00;;;;;;;29.72;32.06;102131.75;5019694;28;20048;-62
2022/05/26 08:34:37;;;;;;;6.35;1.88;;;;;;;29.47;32.81;102140.06;5025255;28;20053;-64
2022/05/26 08:37:03;;;;;;;8.05;2.10;;;;;;;28.24;33.60;102154.25;5028172;28;20350;-63
2022/05/26 08:39:31;;;;;;;4.85;1.67;;;;;;;26.87;34.77;102146.81;5027140;28;20056;-63
2022/05/26 08:41:57;;;;;;;9.05;2.30;;;;;;;26.46;37.82;102149.09;5025302;28;20037;-62
2022/05/26 08:44:36;;;;;;;9.27;2.30;;;;;;;25.25;39.21;102158.03;5019532;28;20684;-64
2022/05/26 08:47:16;;;;;;;8.23;2.25;;;;;;;26.13;37.55;102158.13;5033316;28;20127;-64
2022/05/26 08:49:51;;;;;;;9.43;2.22;;;;;;;25.60;38.67;102162.41;5024277;28;20366;-63
2022/05/26 08:52:25;;;;;;;10.40;2.53;;;;;;;24.81;40.49;102167.16;5018041;28;20375;-63
2022/05/26 17:22:37;;;;;;;12.15;3.53;;;;;;;20.87;53.19;102095.91;4988290;27;20857;-64
2022/05/26 17:25:03;;;;;;;13.73;3.25;;;;;;;20.72;53.61;102094.28;4976757;28;20038;-63
2022/05/26 17:27:37;;;;;;;9.25;3.13;;;;;;;20.36;54.32;102098.13;4972171;28;20050;-62
2022/05/26 17:30:06;;;;;;;;;;;;;;;20.64;53.84;102094.34;4972744;28;20030;-65
2022/05/26 17:32:32;;;;;;;14.43;3.30;;;;;;;20.76;53.70;102084.53;4972759;28;20389;-64
2022/05/26 17:34:58;;;;;;;10.95;3.35;;;;;;;20.81;53.54;102086.22;4975295;28;20313;-64
2022/05/26 17:37:23;;;;;;;16.70;3.38;;;;;;;20.53;54.54;102087.38;4973091;28;20039;-63
2022/05/26 17:39:49;;;;;;;13.35;3.30;;;;;;;20.55;54.21;102086.47;4978364;28;20077;-64
2022/05/26 17:42:14;;;;;;;12.23;3.22;;;;;;;20.59;54.08;102092.63;4964836;28;20134;-63
2022/05/26 17:44:39;;;;;;;10.18;2.97;;;;;;;20.53;54.23;102082.97;4977696;28;20050;-65
2022/05/26 17:47:05;;;;;;;11.25;3.13;;;;;;;20.54;54.58;102076.78;4976294;28;20120;-64
2022/05/26 17:49:31;;;;;;;10.18;3.08;;;;;;;20.48;54.37;102068.88;4974137;28;20092;-64
2022/05/26 17:52:03;;;;;;;11.80;2.85;;;;;;;20.48;54.57;102071.53;4966592;28;20440;-62
2022/05/26 17:54:32;;;;;;;13.15;3.42;;;;;;;20.67;53.97;102077.56;4972592;28;20070;-65
2022/05/26 17:56:58;;;;;;;11.00;2.85;;;;;;;20.84;53.57;102072.97;4975259;28;20038;-66
2022/05/26 18:02:18;;;;;;;11.75;2.72;;;;;;;20.38;54.80;102076.91;4932494;28;20348;-64
2022/05/26 18:04:44;;;;;;;10.70;2.92;;;;;;;20.35;55.03;102072.53;4973780;28;20113;-64
2022/05/26 18:07:10;;;;;;;6.97;2.50;;;;;;;20.59;54.47;102076.72;4961763;28;20045;-64
2022/05/26 18:09:36;;;;;;;10.73;3.30;;;;;;;20.45;54.72;102079.50;4965354;28;20078;-64
2022/05/26 18:12:02;;;;;;;13.25;3.25;;;;;;;19.89;56.36;102073.69;4958226;28;20050;-65
2022/05/26 18:14:28;;;;;;;16.83;3.67;;;;;;;19.97;56.16;102071.88;4963857;28;20350;-63
2022/05/26 18:16:54;;;;;;;15.02;3.15;;;;;;;20.12;56.29;102077.97;4955715;28;20393;-64
2022/05/26 18:19:19;;;;;;;11.80;3.28;;;;;;;19.89;56.49;102063.09;4962413;28;20042;-64
2022/05/26 18:21:45;;;;;;;13.02;3.20;;;;;;;19.50;57.44;102051.84;4967774;28;20539;-63
2022/05/26 18:24:11;;;;;;;11.23;3.20;;;;;;;19.94;56.18;102048.09;4966897;28;20046;-65
2022/05/26 18:26:37;;;;;;;11.02;3.00;;;;;;;20.13;55.75;102047.91;4979988;28;20441;-66
2022/05/26 18:29:03;;;;;;;10.43;3.33;;;;;;;19.95;56.44;102050.69;4981773;28;20360;-64
2022/05/26 18:31:33;;;;;;;11.18;3.33;;;;;;;19.95;56.57;102052.47;4969199;28;20082;-64
2022/05/26 18:34:00;;;;;;;14.55;3.58;;;;;;;20.09;56.28;102053.25;4957443;28;20417;-63
2022/05/26 18:36:26;;;;;;;10.90;3.53;;;;;;;19.97;56.44;102069.22;4963935;28;20600;-63
2022/05/26 18:38:53;;;;;;;11.52;3.55;;;;;;;19.55;57.65;102060.63;4948026;28;20059;-64
2022/05/26 18:41:19;;;;;;;8.13;3.13;;;;;;;19.59;57.50;102051.78;4963300;28;20206;-64
2022/05/26 18:43:44;;;;;;;9.48;3.22;;;;;;;19.77;56.92;102058.75;4967470;28;20458;-64
2022/05/26 18:46:11;;;;;;;12.68;3.70;;;;;;;19.67;57.09;102057.06;4954400;28;20552;-64
2022/05/26 18:48:37;;;;;;;10.70;3.35;;;;;;;19.65;57.20;102056.16;4959423;28;20100;-64
2022/05/26 18:51:06;;;;;;;10.20;3.40;;;;;;;19.74;57.40;102054.38;4963065;28;20038;-63
2022/05/26 18:53:32;;;;;;;10.93;3.20;;;;;;;20.06;56.22;102056.81;4963493;28;20462;-63
2022/05/26 18:55:57;;;;;;;11.80;3.30;;;;;;;19.69;57.39;102060.59;4958501;28;20459;-63
2022/05/26 18:58:22;;;;;;;10.95;3.33;;;;;;;19.92;57.00;102058.69;4962479;28;20458;-63
2022/05/26 19:00:54;;;;;;;11.27;3.60;;;;;;;19.80;57.42;102049.03;4965903;28;20695;-63
2022/05/26 19:03:22;;;;;;;12.68;3.17;;;;;;;19.68;57.19;102050.88;4963044;28;20323;-63
2022/05/26 19:05:58;;;;;;;15.75;3.38;;;;;;;19.87;56.61;102060.47;4964793;28;20109;-63
2022/05/26 19:08:29;;;;;;;9.88;3.22;;;;;;;19.71;56.88;102058.78;4959809;28;20050;-63
2022/05/26 19:10:56;;;;;;;9.13;3.13;;;;;;;19.64;57.12;102054.44;4962136;28;20517;-63
2022/05/26 19:13:34;;;;;;;9.70;3.17;;;;;;;19.54;57.51;102058.00;4962002;28;20133;-63
2022/05/26 19:16:04;;;;;;;9.65;3.20;;;;;;;19.38;57.73;102065.97;4956450;28;20074;-62
2022/05/26 19:18:29;;;;;;;7.22;2.58;;;;;;;19.49;57.91;102059.78;4965820;28;20066;-64
2022/05/26 19:20:56;;;;;;;11.60;2.88;;;;;;;19.25;58.84;102071.31;4961235;28;20383;-63
2022/05/26 19:23:23;;;;;;;12.85;3.17;;;;;;;19.31;57.96;102064.25;4953833;28;20069;-64
2022/05/26 19:25:52;;;;;;;10.95;2.55;;;;;;;19.57;57.46;102058.88;4965535;28;20497;-64
2022/05/26 19:28:26;;;;;;;9.45;2.40;;;;;;;19.50;57.87;102069.50;4939994;28;20035;-63
2022/05/26 19:30:54;;;;;;;8.43;2.70;;;;;;;19.61;57.43;102065.91;4958412;28;20062;-64
2022/05/26 19:33:20;;;;;;;9.90;2.55;;;;;;;19.52;57.84;102067.72;4966228;28;20030;-64
2022/05/26 19:35:45;;;;;;;10.75;3.40;;;;;;;19.40;58.50;102064.19;4965869;28;20378;-63
2022/05/26 19:38:12;;;;;;;12.55;2.50;;;;;;;19.52;57.50;102071.22;4954323;28;20049;-62
2022/05/26 19:40:37;;;;;;;8.38;2.58;;;;;;;19.67;57.50;102076.44;4962602;28;20049;-63
2022/05/26 19:43:04;;;;;;;13.60;2.45;;;;;;;19.59;57.87;102082.66;4962440;28;20046;-64
2022/05/26 19:45:32;;;;;;;9.00;2.63;;;;;;;19.71;57.51;102088.78;4961877;28;20057;-67
2022/05/26 19:47:58;;;;;;;13.50;2.85;;;;;;;19.44;58.30;102087.13;4959049;28;20121;-63
2022/05/26 19:50:25;;;;;;;7.78;2.25;;;;;;;19.35;58.42;102087.13;4941832;28;20030;-65
2022/05/26 19:52:51;;;;;;;9.88;2.70;;;;;;;19.16;59.32;102084.53;4959948;28;20607;-65
2022/05/26 19:55:16;;;;;;;9.32;2.58;;;;;;;19.51;58.38;102087.13;4961177;28;20191;-65
2022/05/26 19:57:42;;;;;;;17.88;2.60;;;;;;;19.44;58.57;102084.47;4962129;28;20046;-66
2022/05/26 20:00:13;;;;;;;13.75;2.85;;;;;;;19.43;58.72;102087.13;4955070;28;20077;-64
2022/05/26 20:02:38;;;;;;;12.00;2.58;;;;;;;19.44;58.79;102084.47;4962609;28;20569;-65
2022/05/26 20:05:04;;;;;;;9.27;2.63;;;;;;;19.44;58.56;102084.47;4965156;28;20074;-65
2022/05/26 20:07:31;;;;;;;14.77;2.80;;;;;;;19.41;58.89;102076.53;4959290;28;20054;-67
2022/05/26 20:09:57;;;;;;;20.58;3.33;;;;;;;19.36;59.18;102082.72;4963622;28;20092;-63
2022/05/26 20:12:23;;;;;;;10.13;2.88;;;;;;;19.42;58.89;102080.94;4958681;28;20052;-64
2022/05/26 20:14:49;;;;;;;9.48;2.65;;;;;;;19.50;58.90;102075.66;4962466;28;20422;-63
2022/05/26 20:17:17;;;;;;;14.95;2.63;;;;;;;19.55;58.53;102087.09;4955916;28;20539;-69
2022/05/26 20:19:44;;;;;;;10.70;2.60;;;;;;;19.63;58.48;102087.94;4958729;28;20050;-64
2022/05/26 20:22:10;;;;;;;10.60;2.83;;;;;;;19.64;58.38;102087.03;4951702;28;20078;-65
2022/05/26 20:24:35;;;;;;;12.90;2.83;;;;;;;19.63;58.55;102085.31;4952090;28;20054;-65